sensor_id;sensor_type;location;lat;lon;timestamp;temperature;humidity
10249;DHT22;5169;50.560;9.714;2023-11-21T00:01:38;8.00;99.90
10249;DHT22;5169;50.560;9.714;2023-11-21T00:04:04;8.10;99.90
10249;DHT22;5169;50.560;9.714;2023-11-21T00:06:29;8.20;99.90
10249;DHT22;5169;50.560;9.714;2023-11-21T00:08:57;8.20;99.90
10249;DHT22;5169;50.560;9.714;2023-11-21T00:11:25;8.40;99.90
10249;DHT22;5169;50.560;9.714;2023-11-21T00:13:51;8.50;99.90
10249;DHT22;5169;50.560;9.714;2023-11-21T00:16:18;8.50;99.90
10249;DHT22;5169;50.560;9.714;2023-11-21T00:18:44;8.70;99.90
10249;DHT22;5169;50.560;9.714;2023-11-21T00:21:12;8.70;99.90
10249;DHT22;5169;50.560;9.714;2023-11-21T00:23:38;8.70;99.90
10249;DHT22;5169;50.560;9.714;2023-11-21T00:26:03;8.50;99.90
10249;DHT22;5169;50.560;9.714;2023-11-21T00:28:31;8.30;99.90
10249;DHT22;5169;50.560;9.714;2023-11-21T00:30:57;8.20;99.90
10249;DHT22;5169;50.560;9.714;2023-11-21T00:33:23;8.10;99.90
10249;DHT22;5169;50.560;9.714;2023-11-21T00:35:52;8.00;99.90
10249;DHT22;5169;50.560;9.714;2023-11-21T00:38:20;8.00;99.90
10249;DHT22;5169;50.560;9.714;2023-11-21T00:40:46;8.00;99.90
10249;DHT22;5169;50.560;9.714;2023-11-21T00:43:14;8.00;99.90
10249;DHT22;5169;50.560;9.714;2023-11-21T00:45:40;8.10;99.90
10249;DHT22;5169;50.560;9.714;2023-11-21T00:48:06;8.20;99.90
10249;DHT22;5169;50.560;9.714;2023-11-21T00:50:33;8.10;99.90
10249;DHT22;5169;50.560;9.714;2023-11-21T00:52:59;8.20;99.90
10249;DHT22;5169;50.560;9.714;2023-11-21T00:55:24;8.40;99.90
10249;DHT22;5169;50.560;9.714;2023-11-21T00:57:50;8.50;99.90
10249;DHT22;5169;50.560;9.714;2023-11-21T01:00:16;8.40;99.90
10249;DHT22;5169;50.560;9.714;2023-11-21T01:02:46;8.30;99.90
10249;DHT22;5169;50.560;9.714;2023-11-21T01:05:12;8.30;99.90
10249;DHT22;5169;50.560;9.714;2023-11-21T01:07:38;8.20;99.90
10249;DHT22;5169;50.560;9.714;2023-11-21T01:10:04;8.10;99.90
10249;DHT22;5169;50.560;9.714;2023-11-21T01:12:37;8.10;99.90
10249;DHT22;5169;50.560;9.714;2023-11-21T01:15:09;8.00;99.90
10249;DHT22;5169;50.560;9.714;2023-11-21T01:17:39;7.90;99.90
10249;DHT22;5169;50.560;9.714;2023-11-21T01:20:06;7.80;99.90
10249;DHT22;5169;50.560;9.714;2023-11-21T01:22:38;7.80;99.90
10249;DHT22;5169;50.560;9.714;2023-11-21T01:25:04;7.90;99.90
10249;DHT22;5169;50.560;9.714;2023-11-21T01:27:36;8.10;99.90
10249;DHT22;5169;50.560;9.714;2023-11-21T01:30:05;8.10;99.90
10249;DHT22;5169;50.560;9.714;2023-11-21T01:32:32;8.10;99.90
10249;DHT22;5169;50.560;9.714;2023-11-21T01:35:00;8.00;99.90
10249;DHT22;5169;50.560;9.714;2023-11-21T01:37:28;8.20;99.90
10249;DHT22;5169;50.560;9.714;2023-11-21T01:39:54;8.20;99.90
10249;DHT22;5169;50.560;9.714;2023-11-21T01:42:23;8.40;99.90
10249;DHT22;5169;50.560;9.714;2023-11-21T01:44:48;8.50;99.90
10249;DHT22;5169;50.560;9.714;2023-11-21T01:47:14;8.50;99.90
10249;DHT22;5169;50.560;9.714;2023-11-21T01:49:46;8.50;99.90
10249;DHT22;5169;50.560;9.714;2023-11-21T01:52:13;8.60;99.90
10249;DHT22;5169;50.560;9.714;2023-11-21T01:54:41;8.60;99.90
10249;DHT22;5169;50.560;9.714;2023-11-21T01:57:09;8.70;99.90
10249;DHT22;5169;50.560;9.714;2023-11-21T01:59:39;8.70;99.90
10249;DHT22;5169;50.560;9.714;2023-11-21T02:02:09;8.70;99.90
10249;DHT22;5169;50.560;9.714;2023-11-21T02:04:35;8.70;99.90
10249;DHT22;5169;50.560;9.714;2023-11-21T02:07:02;8.70;99.90
10249;DHT22;5169;50.560;9.714;2023-11-21T02:09:31;8.70;99.90
10249;DHT22;5169;50.560;9.714;2023-11-21T02:12:00;8.80;99.90
10249;DHT22;5169;50.560;9.714;2023-11-21T02:14:27;8.70;99.90
10249;DHT22;5169;50.560;9.714;2023-11-21T02:16:56;8.70;99.90
10249;DHT22;5169;50.560;9.714;2023-11-21T02:19:26;8.60;99.90
10249;DHT22;5169;50.560;9.714;2023-11-21T02:21:52;8.50;99.90
10249;DHT22;5169;50.560;9.714;2023-11-21T02:24:22;8.50;99.90
10249;DHT22;5169;50.560;9.714;2023-11-21T02:26:48;8.50;99.90
10249;DHT22;5169;50.560;9.714;2023-11-21T02:29:19;8.50;99.90
10249;DHT22;5169;50.560;9.714;2023-11-21T02:31:53;8.50;99.90
10249;DHT22;5169;50.560;9.714;2023-11-21T02:34:20;8.50;99.90
10249;DHT22;5169;50.560;9.714;2023-11-21T02:36:47;8.50;99.90
10249;DHT22;5169;50.560;9.714;2023-11-21T02:39:18;8.50;99.90
10249;DHT22;5169;50.560;9.714;2023-11-21T02:41:47;8.50;99.90
10249;DHT22;5169;50.560;9.714;2023-11-21T02:44:13;8.40;99.90
10249;DHT22;5169;50.560;9.714;2023-11-21T02:46:38;8.40;99.90
10249;DHT22;5169;50.560;9.714;2023-11-21T02:49:06;8.40;99.90
10249;DHT22;5169;50.560;9.714;2023-11-21T02:51:32;8.40;99.90
10249;DHT22;5169;50.560;9.714;2023-11-21T02:53:58;8.40;99.90
10249;DHT22;5169;50.560;9.714;2023-11-21T02:56:27;8.40;99.90
10249;DHT22;5169;50.560;9.714;2023-11-21T02:58:58;8.30;99.90
10249;DHT22;5169;50.560;9.714;2023-11-21T03:01:25;8.30;99.90
10249;DHT22;5169;50.560;9.714;2023-11-21T03:03:51;8.30;99.90
10249;DHT22;5169;50.560;9.714;2023-11-21T03:06:21;8.40;99.90
10249;DHT22;5169;50.560;9.714;2023-11-21T03:08:47;8.40;99.90
10249;DHT22;5169;50.560;9.714;2023-11-21T03:11:13;8.40;99.90
10249;DHT22;5169;50.560;9.714;2023-11-21T03:13:42;8.40;99.90
10249;DHT22;5169;50.560;9.714;2023-11-21T03:16:14;8.30;99.90
10249;DHT22;5169;50.560;9.714;2023-11-21T03:18:40;8.30;99.90
10249;DHT22;5169;50.560;9.714;2023-11-21T03:21:11;8.20;99.90
10249;DHT22;5169;50.560;9.714;2023-11-21T03:23:37;8.30;99.90
10249;DHT22;5169;50.560;9.714;2023-11-21T03:26:03;8.20;99.90
10249;DHT22;5169;50.560;9.714;2023-11-21T03:28:29;8.20;99.90
10249;DHT22;5169;50.560;9.714;2023-11-21T03:30:56;8.20;99.90
10249;DHT22;5169;50.560;9.714;2023-11-21T03:33:21;8.20;99.90
10249;DHT22;5169;50.560;9.714;2023-11-21T03:35:48;8.20;99.90
10249;DHT22;5169;50.560;9.714;2023-11-21T03:38:14;8.20;99.90
10249;DHT22;5169;50.560;9.714;2023-11-21T03:40:41;8.20;99.90
10249;DHT22;5169;50.560;9.714;2023-11-21T03:43:07;8.20;99.90
10249;DHT22;5169;50.560;9.714;2023-11-21T03:45:32;8.20;99.90
10249;DHT22;5169;50.560;9.714;2023-11-21T03:47:58;8.20;99.90
10249;DHT22;5169;50.560;9.714;2023-11-21T03:50:23;8.20;99.90
10249;DHT22;5169;50.560;9.714;2023-11-21T03:52:51;8.10;99.90
10249;DHT22;5169;50.560;9.714;2023-11-21T03:55:19;8.10;99.90
10249;DHT22;5169;50.560;9.714;2023-11-21T03:57:45;8.10;99.90
10249;DHT22;5169;50.560;9.714;2023-11-21T04:00:11;8.00;99.90
10249;DHT22;5169;50.560;9.714;2023-11-21T04:02:36;8.10;99.90
10249;DHT22;5169;50.560;9.714;2023-11-21T04:05:02;8.00;99.90
10249;DHT22;5169;50.560;9.714;2023-11-21T04:07:28;8.10;99.90
10249;DHT22;5169;50.560;9.714;2023-11-21T04:09:54;8.20;99.90
10249;DHT22;5169;50.560;9.714;2023-11-21T04:12:19;8.20;99.90
10249;DHT22;5169;50.560;9.714;2023-11-21T04:14:45;8.20;99.90
10249;DHT22;5169;50.560;9.714;2023-11-21T04:17:11;8.30;99.90
10249;DHT22;5169;50.560;9.714;2023-11-21T04:19:36;8.20;99.90
10249;DHT22;5169;50.560;9.714;2023-11-21T04:22:02;8.20;99.90
10249;DHT22;5169;50.560;9.714;2023-11-21T04:24:28;8.20;99.90
10249;DHT22;5169;50.560;9.714;2023-11-21T04:26:55;8.20;99.90
10249;DHT22;5169;50.560;9.714;2023-11-21T04:29:21;8.20;99.90
10249;DHT22;5169;50.560;9.714;2023-11-21T04:31:50;8.20;99.90
10249;DHT22;5169;50.560;9.714;2023-11-21T04:34:18;8.10;99.90
10249;DHT22;5169;50.560;9.714;2023-11-21T04:36:44;8.10;99.90
10249;DHT22;5169;50.560;9.714;2023-11-21T04:39:12;8.10;99.90
10249;DHT22;5169;50.560;9.714;2023-11-21T04:41:37;8.10;99.90
10249;DHT22;5169;50.560;9.714;2023-11-21T04:44:05;8.10;99.90
10249;DHT22;5169;50.560;9.714;2023-11-21T04:46:31;8.00;99.90
10249;DHT22;5169;50.560;9.714;2023-11-21T04:48:57;8.10;99.90
10249;DHT22;5169;50.560;9.714;2023-11-21T04:51:25;8.10;99.90
10249;DHT22;5169;50.560;9.714;2023-11-21T04:53:53;8.10;99.90
10249;DHT22;5169;50.560;9.714;2023-11-21T04:56:19;8.20;99.90
10249;DHT22;5169;50.560;9.714;2023-11-21T04:58:47;8.20;99.90
10249;DHT22;5169;50.560;9.714;2023-11-21T05:01:15;8.20;99.90
10249;DHT22;5169;50.560;9.714;2023-11-21T05:03:41;8.10;99.90
10249;DHT22;5169;50.560;9.714;2023-11-21T05:06:12;8.20;99.90
10249;DHT22;5169;50.560;9.714;2023-11-21T05:08:37;8.20;99.90
10249;DHT22;5169;50.560;9.714;2023-11-21T05:11:07;8.20;99.90
10249;DHT22;5169;50.560;9.714;2023-11-21T05:13:36;8.10;99.90
10249;DHT22;5169;50.560;9.714;2023-11-21T05:16:02;8.20;99.90
10249;DHT22;5169;50.560;9.714;2023-11-21T05:18:29;8.20;99.90
10249;DHT22;5169;50.560;9.714;2023-11-21T05:20:55;8.20;99.90
10249;DHT22;5169;50.560;9.714;2023-11-21T05:23:21;8.10;99.90
10249;DHT22;5169;50.560;9.714;2023-11-21T05:25:49;8.10;99.90
10249;DHT22;5169;50.560;9.714;2023-11-21T05:28:17;8.10;99.90
10249;DHT22;5169;50.560;9.714;2023-11-21T05:30:43;8.10;99.90
10249;DHT22;5169;50.560;9.714;2023-11-21T05:33:11;8.10;99.90
10249;DHT22;5169;50.560;9.714;2023-11-21T05:35:39;8.20;99.90
10249;DHT22;5169;50.560;9.714;2023-11-21T05:38:05;8.20;99.90
10249;DHT22;5169;50.560;9.714;2023-11-21T05:40:33;8.10;99.90
10249;DHT22;5169;50.560;9.714;2023-11-21T05:42:58;8.00;99.90
10249;DHT22;5169;50.560;9.714;2023-11-21T05:45:26;8.00;99.90
10249;DHT22;5169;50.560;9.714;2023-11-21T05:47:55;8.00;99.90
10249;DHT22;5169;50.560;9.714;2023-11-21T05:50:23;8.10;99.90
10249;DHT22;5169;50.560;9.714;2023-11-21T05:52:51;8.00;99.90
10249;DHT22;5169;50.560;9.714;2023-11-21T05:55:16;8.00;99.90
10249;DHT22;5169;50.560;9.714;2023-11-21T05:57:46;7.90;99.90
10249;DHT22;5169;50.560;9.714;2023-11-21T06:00:13;7.90;99.90
10249;DHT22;5169;50.560;9.714;2023-11-21T06:02:47;7.80;99.90
10249;DHT22;5169;50.560;9.714;2023-11-21T06:05:16;7.80;99.90
10249;DHT22;5169;50.560;9.714;2023-11-21T06:07:43;7.80;99.90
10249;DHT22;5169;50.560;9.714;2023-11-21T06:10:11;7.80;99.90
10249;DHT22;5169;50.560;9.714;2023-11-21T06:12:49;7.80;99.90
10249;DHT22;5169;50.560;9.714;2023-11-21T06:15:15;7.80;99.90
10249;DHT22;5169;50.560;9.714;2023-11-21T06:17:42;7.80;99.90
10249;DHT22;5169;50.560;9.714;2023-11-21T06:20:09;7.90;99.90
10249;DHT22;5169;50.560;9.714;2023-11-21T06:22:38;7.80;99.90
10249;DHT22;5169;50.560;9.714;2023-11-21T06:25:05;7.70;99.90
10249;DHT22;5169;50.560;9.714;2023-11-21T06:27:39;7.70;99.90
10249;DHT22;5169;50.560;9.714;2023-11-21T06:30:07;7.60;99.90
10249;DHT22;5169;50.560;9.714;2023-11-21T06:32:35;7.60;99.90
10249;DHT22;5169;50.560;9.714;2023-11-21T06:35:04;7.60;99.90
10249;DHT22;5169;50.560;9.714;2023-11-21T06:37:31;7.60;99.90
10249;DHT22;5169;50.560;9.714;2023-11-21T06:40:00;7.70;99.90
10249;DHT22;5169;50.560;9.714;2023-11-21T06:42:26;7.70;99.90
10249;DHT22;5169;50.560;9.714;2023-11-21T06:44:52;7.60;99.90
10249;DHT22;5169;50.560;9.714;2023-11-21T06:47:19;7.70;99.90
10249;DHT22;5169;50.560;9.714;2023-11-21T06:49:50;7.60;99.90
10249;DHT22;5169;50.560;9.714;2023-11-21T06:52:19;7.70;99.90
10249;DHT22;5169;50.560;9.714;2023-11-21T06:54:45;7.80;99.90
10249;DHT22;5169;50.560;9.714;2023-11-21T06:57:11;7.80;99.90
10249;DHT22;5169;50.560;9.714;2023-11-21T06:59:39;7.80;99.90
10249;DHT22;5169;50.560;9.714;2023-11-21T07:02:05;7.80;99.90
10249;DHT22;5169;50.560;9.714;2023-11-21T07:04:37;7.70;99.90
10249;DHT22;5169;50.560;9.714;2023-11-21T07:07:06;7.80;99.90
10249;DHT22;5169;50.560;9.714;2023-11-21T07:09:37;7.80;99.90
10249;DHT22;5169;50.560;9.714;2023-11-21T07:12:03;7.90;99.90
10249;DHT22;5169;50.560;9.714;2023-11-21T07:14:31;7.90;99.90
10249;DHT22;5169;50.560;9.714;2023-11-21T07:16:57;7.80;99.90
10249;DHT22;5169;50.560;9.714;2023-11-21T07:19:23;7.80;99.90
10249;DHT22;5169;50.560;9.714;2023-11-21T07:21:49;7.70;99.90
10249;DHT22;5169;50.560;9.714;2023-11-21T07:24:17;7.60;99.90
10249;DHT22;5169;50.560;9.714;2023-11-21T07:26:45;7.50;99.90
10249;DHT22;5169;50.560;9.714;2023-11-21T07:29:11;7.30;99.90
10249;DHT22;5169;50.560;9.714;2023-11-21T07:31:37;7.30;99.90
10249;DHT22;5169;50.560;9.714;2023-11-21T07:34:03;7.40;99.90
10249;DHT22;5169;50.560;9.714;2023-11-21T07:36:29;7.30;99.90
10249;DHT22;5169;50.560;9.714;2023-11-21T07:38:55;7.30;99.90
10249;DHT22;5169;50.560;9.714;2023-11-21T07:41:20;7.20;99.90
10249;DHT22;5169;50.560;9.714;2023-11-21T07:43:46;7.20;99.90
10249;DHT22;5169;50.560;9.714;2023-11-21T07:46:13;7.30;99.90
10249;DHT22;5169;50.560;9.714;2023-11-21T07:48:42;7.50;99.90
10249;DHT22;5169;50.560;9.714;2023-11-21T07:51:11;7.60;99.90
10249;DHT22;5169;50.560;9.714;2023-11-21T07:53:40;7.70;99.90
10249;DHT22;5169;50.560;9.714;2023-11-21T07:56:07;7.80;99.90
10249;DHT22;5169;50.560;9.714;2023-11-21T07:58:34;7.90;99.90
10249;DHT22;5169;50.560;9.714;2023-11-21T08:01:03;7.90;99.90
10249;DHT22;5169;50.560;9.714;2023-11-21T08:03:29;8.10;99.90
10249;DHT22;5169;50.560;9.714;2023-11-21T08:05:57;8.30;99.90
10249;DHT22;5169;50.560;9.714;2023-11-21T08:08:29;8.40;99.90
10249;DHT22;5169;50.560;9.714;2023-11-21T08:10:57;8.40;99.90
10249;DHT22;5169;50.560;9.714;2023-11-21T08:13:26;8.50;99.90
10249;DHT22;5169;50.560;9.714;2023-11-21T08:15:56;8.30;99.90
10249;DHT22;5169;50.560;9.714;2023-11-21T08:18:22;8.50;99.90
10249;DHT22;5169;50.560;9.714;2023-11-21T08:20:50;8.50;99.90
10249;DHT22;5169;50.560;9.714;2023-11-21T08:23:18;8.70;99.90
10249;DHT22;5169;50.560;9.714;2023-11-21T08:25:46;8.70;99.90
10249;DHT22;5169;50.560;9.714;2023-11-21T08:28:12;8.70;99.90
10249;DHT22;5169;50.560;9.714;2023-11-21T08:30:40;8.60;99.90
10249;DHT22;5169;50.560;9.714;2023-11-21T08:33:07;8.50;99.90
10249;DHT22;5169;50.560;9.714;2023-11-21T08:35:35;9.00;99.90
10249;DHT22;5169;50.560;9.714;2023-11-21T08:38:02;9.70;99.90
10249;DHT22;5169;50.560;9.714;2023-11-21T08:40:32;10.10;99.90
10249;DHT22;5169;50.560;9.714;2023-11-21T08:43:00;10.40;99.90
10249;DHT22;5169;50.560;9.714;2023-11-21T08:45:28;10.20;99.90
10249;DHT22;5169;50.560;9.714;2023-11-21T08:47:53;10.10;99.90
10249;DHT22;5169;50.560;9.714;2023-11-21T08:50:21;10.00;99.90
10249;DHT22;5169;50.560;9.714;2023-11-21T08:52:49;9.80;99.90
10249;DHT22;5169;50.560;9.714;2023-11-21T08:55:16;9.80;99.90
10249;DHT22;5169;50.560;9.714;2023-11-21T08:57:45;9.60;99.90
10249;DHT22;5169;50.560;9.714;2023-11-21T09:00:14;9.60;99.90
10249;DHT22;5169;50.560;9.714;2023-11-21T09:02:45;9.50;99.90
10249;DHT22;5169;50.560;9.714;2023-11-21T09:05:12;9.30;99.90
10249;DHT22;5169;50.560;9.714;2023-11-21T09:07:39;9.10;99.90
10249;DHT22;5169;50.560;9.714;2023-11-21T09:10:06;9.10;99.90
10249;DHT22;5169;50.560;9.714;2023-11-21T09:12:36;9.00;99.90
10249;DHT22;5169;50.560;9.714;2023-11-21T09:15:06;8.90;99.90
10249;DHT22;5169;50.560;9.714;2023-11-21T09:17:37;8.80;99.90
10249;DHT22;5169;50.560;9.714;2023-11-21T09:20:04;8.50;99.90
10249;DHT22;5169;50.560;9.714;2023-11-21T09:22:31;8.40;99.90
10249;DHT22;5169;50.560;9.714;2023-11-21T09:24:57;8.30;99.90
10249;DHT22;5169;50.560;9.714;2023-11-21T09:27:23;8.40;99.90
10249;DHT22;5169;50.560;9.714;2023-11-21T09:29:49;8.40;99.90
10249;DHT22;5169;50.560;9.714;2023-11-21T09:32:18;8.40;99.90
10249;DHT22;5169;50.560;9.714;2023-11-21T09:34:44;8.40;99.90
10249;DHT22;5169;50.560;9.714;2023-11-21T09:37:10;8.40;99.90
10249;DHT22;5169;50.560;9.714;2023-11-21T09:39:38;8.40;99.90
10249;DHT22;5169;50.560;9.714;2023-11-21T09:47:15;8.50;99.90
10249;DHT22;5169;50.560;9.714;2023-11-21T09:49:47;8.50;99.90
10249;DHT22;5169;50.560;9.714;2023-11-21T09:52:26;8.60;99.90
10249;DHT22;5169;50.560;9.714;2023-11-21T09:54:53;8.90;99.90
10249;DHT22;5169;50.560;9.714;2023-11-21T09:57:20;9.10;99.90
10249;DHT22;5169;50.560;9.714;2023-11-21T09:59:53;9.30;99.90
10249;DHT22;5169;50.560;9.714;2023-11-21T10:02:28;9.40;99.90
10249;DHT22;5169;50.560;9.714;2023-11-21T10:04:59;9.30;99.90
10249;DHT22;5169;50.560;9.714;2023-11-21T10:07:26;9.40;99.90
10249;DHT22;5169;50.560;9.714;2023-11-21T10:09:53;9.80;99.90
10249;DHT22;5169;50.560;9.714;2023-11-21T10:12:18;10.10;99.90
10249;DHT22;5169;50.560;9.714;2023-11-21T10:14:49;10.10;99.90
10249;DHT22;5169;50.560;9.714;2023-11-21T10:17:15;10.10;99.90
10249;DHT22;5169;50.560;9.714;2023-11-21T10:19:46;10.10;99.90
10249;DHT22;5169;50.560;9.714;2023-11-21T10:22:15;10.20;99.90
10249;DHT22;5169;50.560;9.714;2023-11-21T10:24:42;10.30;99.90
10249;DHT22;5169;50.560;9.714;2023-11-21T10:27:09;10.30;99.90
10249;DHT22;5169;50.560;9.714;2023-11-21T10:29:36;10.20;99.90
10249;DHT22;5169;50.560;9.714;2023-11-21T10:32:05;10.00;99.90
10249;DHT22;5169;50.560;9.714;2023-11-21T10:34:31;9.80;99.90
10249;DHT22;5169;50.560;9.714;2023-11-21T10:36:57;9.70;99.90
10249;DHT22;5169;50.560;9.714;2023-11-21T10:39:24;9.70;99.90
10249;DHT22;5169;50.560;9.714;2023-11-21T10:41:54;9.80;99.90
10249;DHT22;5169;50.560;9.714;2023-11-21T10:44:20;9.80;99.90
10249;DHT22;5169;50.560;9.714;2023-11-21T10:46:53;9.80;99.90
10249;DHT22;5169;50.560;9.714;2023-11-21T10:49:22;9.70;99.90
10249;DHT22;5169;50.560;9.714;2023-11-21T10:51:52;9.60;99.90
10249;DHT22;5169;50.560;9.714;2023-11-21T10:54:23;9.50;99.90
10249;DHT22;5169;50.560;9.714;2023-11-21T10:56:50;9.50;99.90
10249;DHT22;5169;50.560;9.714;2023-11-21T10:59:18;9.40;99.90
10249;DHT22;5169;50.560;9.714;2023-11-21T11:01:46;9.40;99.90
10249;DHT22;5169;50.560;9.714;2023-11-21T11:04:12;9.50;99.90
10249;DHT22;5169;50.560;9.714;2023-11-21T11:07:05;9.40;99.90
10249;DHT22;5169;50.560;9.714;2023-11-21T11:09:31;9.40;99.90
10249;DHT22;5169;50.560;9.714;2023-11-21T11:12:02;9.30;99.90
10249;DHT22;5169;50.560;9.714;2023-11-21T11:14:28;9.30;99.90
10249;DHT22;5169;50.560;9.714;2023-11-21T11:16:54;9.30;99.90
10249;DHT22;5169;50.560;9.714;2023-11-21T11:19:21;9.40;99.90
10249;DHT22;5169;50.560;9.714;2023-11-21T11:22:36;9.50;99.90
10249;DHT22;5169;50.560;9.714;2023-11-21T11:28:20;9.80;99.90
10249;DHT22;5169;50.560;9.714;2023-11-21T11:34:18;9.70;99.90
10249;DHT22;5169;50.560;9.714;2023-11-21T11:36:51;9.60;99.90
10249;DHT22;5169;50.560;9.714;2023-11-21T11:42:03;9.40;99.90
10249;DHT22;5169;50.560;9.714;2023-11-21T11:47:24;9.30;99.90
10249;DHT22;5169;50.560;9.714;2023-11-21T11:52:51;9.20;99.90
10249;DHT22;5169;50.560;9.714;2023-11-21T11:55:24;9.10;99.90
10249;DHT22;5169;50.560;9.714;2023-11-21T11:57:52;9.10;99.90
10249;DHT22;5169;50.560;9.714;2023-11-21T12:00:22;9.10;99.90
10249;DHT22;5169;50.560;9.714;2023-11-21T12:03:01;9.10;99.90
10249;DHT22;5169;50.560;9.714;2023-11-21T12:05:29;9.10;99.90
10249;DHT22;5169;50.560;9.714;2023-11-21T12:08:00;9.10;99.90
10249;DHT22;5169;50.560;9.714;2023-11-21T12:10:30;9.10;99.90
10249;DHT22;5169;50.560;9.714;2023-11-21T12:12:57;9.10;99.90
10249;DHT22;5169;50.560;9.714;2023-11-21T12:15:25;9.10;99.90
10249;DHT22;5169;50.560;9.714;2023-11-21T12:17:52;9.10;99.90
10249;DHT22;5169;50.560;9.714;2023-11-21T12:20:22;9.10;99.90
10249;DHT22;5169;50.560;9.714;2023-11-21T12:22:55;9.20;99.90
10249;DHT22;5169;50.560;9.714;2023-11-21T12:25:26;9.30;99.90
10249;DHT22;5169;50.560;9.714;2023-11-21T12:27:58;9.30;99.90
10249;DHT22;5169;50.560;9.714;2023-11-21T12:30:28;9.30;99.90
10249;DHT22;5169;50.560;9.714;2023-11-21T12:32:56;9.40;99.90
10249;DHT22;5169;50.560;9.714;2023-11-21T12:35:24;9.40;99.90
10249;DHT22;5169;50.560;9.714;2023-11-21T12:37:52;9.40;99.90
10249;DHT22;5169;50.560;9.714;2023-11-21T12:40:18;9.40;99.90
10249;DHT22;5169;50.560;9.714;2023-11-21T12:42:49;9.40;99.90
10249;DHT22;5169;50.560;9.714;2023-11-21T12:47:55;9.30;99.90
10249;DHT22;5169;50.560;9.714;2023-11-21T12:50:23;9.40;99.90
10249;DHT22;5169;50.560;9.714;2023-11-21T12:52:50;9.50;99.90
10249;DHT22;5169;50.560;9.714;2023-11-21T12:55:21;9.50;99.90
10249;DHT22;5169;50.560;9.714;2023-11-21T12:57:54;9.50;99.90
10249;DHT22;5169;50.560;9.714;2023-11-21T13:00:31;9.60;99.90
10249;DHT22;5169;50.560;9.714;2023-11-21T13:02:58;9.50;99.90
10249;DHT22;5169;50.560;9.714;2023-11-21T13:05:45;9.40;99.90
10249;DHT22;5169;50.560;9.714;2023-11-21T13:08:13;9.40;99.90
10249;DHT22;5169;50.560;9.714;2023-11-21T13:10:45;9.50;99.90
10249;DHT22;5169;50.560;9.714;2023-11-21T13:13:15;9.50;99.90
10249;DHT22;5169;50.560;9.714;2023-11-21T13:15:53;9.50;99.90
10249;DHT22;5169;50.560;9.714;2023-11-21T13:18:23;9.50;99.90
10249;DHT22;5169;50.560;9.714;2023-11-21T13:20:49;9.40;99.90
10249;DHT22;5169;50.560;9.714;2023-11-21T13:23:18;9.40;99.90
10249;DHT22;5169;50.560;9.714;2023-11-21T13:25:44;9.30;99.90
10249;DHT22;5169;50.560;9.714;2023-11-21T13:28:11;9.50;99.90
10249;DHT22;5169;50.560;9.714;2023-11-21T13:30:37;9.60;99.90
10249;DHT22;5169;50.560;9.714;2023-11-21T13:33:06;9.50;99.90
10249;DHT22;5169;50.560;9.714;2023-11-21T13:35:34;9.40;99.90
10249;DHT22;5169;50.560;9.714;2023-11-21T13:38:10;9.40;99.90
10249;DHT22;5169;50.560;9.714;2023-11-21T13:40:37;9.50;99.90
10249;DHT22;5169;50.560;9.714;2023-11-21T13:43:13;9.40;99.90
10249;DHT22;5169;50.560;9.714;2023-11-21T13:45:43;9.40;99.90
10249;DHT22;5169;50.560;9.714;2023-11-21T13:48:11;9.30;99.90
10249;DHT22;5169;50.560;9.714;2023-11-21T13:50:43;9.10;99.90
10249;DHT22;5169;50.560;9.714;2023-11-21T13:53:18;9.20;99.90
10249;DHT22;5169;50.560;9.714;2023-11-21T13:55:48;9.30;99.90
10249;DHT22;5169;50.560;9.714;2023-11-21T13:58:22;9.20;99.90
10249;DHT22;5169;50.560;9.714;2023-11-21T14:00:53;9.00;99.90
10249;DHT22;5169;50.560;9.714;2023-11-21T14:03:25;9.00;99.90
10249;DHT22;5169;50.560;9.714;2023-11-21T14:06:05;9.00;99.90
10249;DHT22;5169;50.560;9.714;2023-11-21T14:08:40;9.20;99.90
10249;DHT22;5169;50.560;9.714;2023-11-21T14:11:05;9.10;99.90
10249;DHT22;5169;50.560;9.714;2023-11-21T14:13:32;9.10;99.90
10249;DHT22;5169;50.560;9.714;2023-11-21T14:15:59;9.10;99.90
10249;DHT22;5169;50.560;9.714;2023-11-21T14:18:28;9.10;99.90
10249;DHT22;5169;50.560;9.714;2023-11-21T14:20:59;8.90;99.90
10249;DHT22;5169;50.560;9.714;2023-11-21T14:23:25;9.00;99.90
10249;DHT22;5169;50.560;9.714;2023-11-21T14:25:51;8.90;99.90
10249;DHT22;5169;50.560;9.714;2023-11-21T14:28:17;8.90;99.90
10249;DHT22;5169;50.560;9.714;2023-11-21T14:30:46;8.80;99.90
10249;DHT22;5169;50.560;9.714;2023-11-21T14:33:12;8.70;99.90
10249;DHT22;5169;50.560;9.714;2023-11-21T14:35:40;8.70;99.90
10249;DHT22;5169;50.560;9.714;2023-11-21T14:38:06;8.80;99.90
10249;DHT22;5169;50.560;9.714;2023-11-21T14:40:32;8.80;99.90
10249;DHT22;5169;50.560;9.714;2023-11-21T14:43:02;8.80;99.90
10249;DHT22;5169;50.560;9.714;2023-11-21T14:45:31;8.60;99.90
10249;DHT22;5169;50.560;9.714;2023-11-21T14:48:00;8.50;99.90
10249;DHT22;5169;50.560;9.714;2023-11-21T14:50:35;8.40;99.90
10249;DHT22;5169;50.560;9.714;2023-11-21T14:53:06;8.40;99.90
10249;DHT22;5169;50.560;9.714;2023-11-21T14:55:33;8.30;99.90
10249;DHT22;5169;50.560;9.714;2023-11-21T14:58:18;8.40;99.90
10249;DHT22;5169;50.560;9.714;2023-11-21T15:01:03;8.40;99.90
10249;DHT22;5169;50.560;9.714;2023-11-21T15:03:29;8.40;99.90
10249;DHT22;5169;50.560;9.714;2023-11-21T15:05:58;8.60;99.90
10249;DHT22;5169;50.560;9.714;2023-11-21T15:08:49;8.70;99.90
10249;DHT22;5169;50.560;9.714;2023-11-21T15:11:21;8.60;99.90
10249;DHT22;5169;50.560;9.714;2023-11-21T15:13:56;8.70;99.90
10249;DHT22;5169;50.560;9.714;2023-11-21T15:16:21;8.80;99.90
10249;DHT22;5169;50.560;9.714;2023-11-21T15:18:51;8.80;99.90
10249;DHT22;5169;50.560;9.714;2023-11-21T15:21:20;8.70;99.90
10249;DHT22;5169;50.560;9.714;2023-11-21T15:23:47;8.80;99.90
10249;DHT22;5169;50.560;9.714;2023-11-21T15:26:16;8.70;99.90
10249;DHT22;5169;50.560;9.714;2023-11-21T15:28:41;8.70;99.90
10249;DHT22;5169;50.560;9.714;2023-11-21T15:31:09;8.70;99.90
10249;DHT22;5169;50.560;9.714;2023-11-21T15:33:35;8.80;99.90
10249;DHT22;5169;50.560;9.714;2023-11-21T15:36:06;8.70;99.90
10249;DHT22;5169;50.560;9.714;2023-11-21T15:38:35;8.70;99.90
10249;DHT22;5169;50.560;9.714;2023-11-21T15:41:03;8.70;99.90
10249;DHT22;5169;50.560;9.714;2023-11-21T15:43:36;8.70;99.90
10249;DHT22;5169;50.560;9.714;2023-11-21T15:46:04;8.60;99.90
10249;DHT22;5169;50.560;9.714;2023-11-21T15:48:34;8.60;99.90
10249;DHT22;5169;50.560;9.714;2023-11-21T15:51:04;8.60;99.90
10249;DHT22;5169;50.560;9.714;2023-11-21T15:53:35;8.60;99.90
10249;DHT22;5169;50.560;9.714;2023-11-21T15:56:05;8.60;99.90
10249;DHT22;5169;50.560;9.714;2023-11-21T15:58:36;8.60;99.90
10249;DHT22;5169;50.560;9.714;2023-11-21T16:01:01;8.60;99.90
10249;DHT22;5169;50.560;9.714;2023-11-21T16:03:28;8.50;99.90
10249;DHT22;5169;50.560;9.714;2023-11-21T16:05:56;8.50;99.90
10249;DHT22;5169;50.560;9.714;2023-11-21T16:08:23;8.50;99.90
10249;DHT22;5169;50.560;9.714;2023-11-21T16:10:49;8.50;99.90
10249;DHT22;5169;50.560;9.714;2023-11-21T16:13:15;8.40;99.90
10249;DHT22;5169;50.560;9.714;2023-11-21T16:15:42;8.30;99.90
10249;DHT22;5169;50.560;9.714;2023-11-21T16:18:10;8.30;99.90
10249;DHT22;5169;50.560;9.714;2023-11-21T16:20:36;8.30;99.90
10249;DHT22;5169;50.560;9.714;2023-11-21T16:23:04;8.30;99.90
10249;DHT22;5169;50.560;9.714;2023-11-21T16:25:30;8.30;99.90
10249;DHT22;5169;50.560;9.714;2023-11-21T16:27:55;8.30;99.90
10249;DHT22;5169;50.560;9.714;2023-11-21T16:30:26;8.30;99.90
10249;DHT22;5169;50.560;9.714;2023-11-21T16:32:54;8.30;99.90